createdAt,value
2022-12-14T00:00:02.935Z,77.84
2022-12-14T00:00:12.901Z,77.84
2022-12-14T00:00:22.986Z,77.84
2022-12-14T00:00:32.887Z,77.84
2022-12-14T00:00:42.903Z,77.94
2022-12-14T00:00:52.967Z,77.94
2022-12-14T00:01:03.053Z,77.94
2022-12-14T00:01:12.803Z,77.94
2022-12-14T00:01:22.907Z,77.94
2022-12-14T00:01:32.796Z,77.94
2022-12-14T00:01:45.005Z,77.94
2022-12-14T00:01:52.796Z,77.94
2022-12-14T00:02:03.191Z,77.94
2022-12-14T00:02:12.895Z,78.05
2022-12-14T00:02:23.008Z,78.05
2022-12-14T00:02:33.074Z,78.05
2022-12-14T00:02:43.110Z,78.05
2022-12-14T00:02:53.014Z,78.05
2022-12-14T00:03:03.027Z,78.05
2022-12-14T00:03:13.179Z,78.05
2022-12-14T00:03:23.004Z,78.05
2022-12-14T00:03:32.970Z,78.05
2022-12-14T00:03:42.960Z,78.05
2022-12-14T00:03:53.110Z,78.16
2022-12-14T00:04:03.046Z,78.16
2022-12-14T00:04:12.790Z,78.16
2022-12-14T00:04:23.030Z,78.16
2022-12-14T00:04:32.960Z,78.16
2022-12-14T00:04:43.014Z,78.05
2022-12-14T00:04:52.980Z,78.05
2022-12-14T00:05:02.815Z,78.05
2022-12-14T00:05:12.804Z,78.02
2022-12-14T00:05:22.781Z,78.05
2022-12-14T00:05:33.036Z,78.05
2022-12-14T00:05:42.915Z,78.05
2022-12-14T00:05:53.010Z,77.94
2022-12-14T00:06:02.823Z,78.05
2022-12-14T00:06:12.868Z,78.05
2022-12-14T00:06:22.882Z,78.05
2022-12-14T00:06:33.072Z,78.05
2022-12-14T00:06:42.860Z,77.94
2022-12-14T00:06:52.979Z,77.94
2022-12-14T00:07:02.977Z,78.05
2022-12-14T00:07:13.106Z,78.05
2022-12-14T00:07:23.072Z,78.05
2022-12-14T00:07:32.903Z,78.05
2022-12-14T00:07:43.088Z,78.05
2022-12-14T00:07:52.872Z,78.05
2022-12-14T00:08:03.012Z,78.05
2022-12-14T00:08:12.782Z,78.05
2022-12-14T00:08:23.055Z,77.94
2022-12-14T00:08:38.206Z,78.05
2022-12-14T00:08:42.822Z,78.05
2022-12-14T00:08:52.881Z,78.05
2022-12-14T00:09:02.910Z,78.05
2022-12-14T00:09:12.863Z,78.05
2022-12-14T00:09:22.783Z,78.05
2022-12-14T00:09:33.084Z,78.05
2022-12-14T00:09:42.887Z,77.94
2022-12-14T00:09:52.958Z,77.94
2022-12-14T00:10:02.941Z,77.94
2022-12-14T00:10:12.911Z,77.94
2022-12-14T00:10:23.011Z,77.94
2022-12-14T00:10:32.926Z,77.94
2022-12-14T00:10:42.902Z,77.84
2022-12-14T00:10:52.930Z,77.84
2022-12-14T00:11:03.037Z,77.84
2022-12-14T00:11:12.857Z,77.84
2022-12-14T00:11:22.777Z,77.84
2022-12-14T00:11:32.945Z,77.84
2022-12-14T00:11:43.056Z,77.84
2022-12-14T00:11:52.882Z,77.84
2022-12-14T00:12:02.877Z,77.84
2022-12-14T00:12:12.833Z,77.73
2022-12-14T00:12:22.866Z,77.73
2022-12-14T00:12:32.849Z,77.73
2022-12-14T00:12:42.950Z,77.73
2022-12-14T00:12:52.936Z,77.73
2022-12-14T00:13:02.922Z,77.73
2022-12-14T00:13:12.878Z,77.73
2022-12-14T00:13:22.794Z,77.73
2022-12-14T00:13:32.882Z,77.73
2022-12-14T00:13:42.912Z,77.73
2022-12-14T00:13:52.954Z,77.84
2022-12-14T00:14:02.921Z,77.84
2022-12-14T00:14:13.054Z,77.80
2022-12-14T00:14:22.960Z,77.84
2022-12-14T00:14:32.775Z,77.84
2022-12-14T00:14:42.910Z,77.84
2022-12-14T00:14:52.943Z,77.84
2022-12-14T00:15:02.814Z,77.94
2022-12-14T00:15:12.987Z,77.94
2022-12-14T00:15:22.852Z,77.91
2022-12-14T00:15:32.844Z,77.94
2022-12-14T00:15:43.079Z,77.91
2022-12-14T00:15:52.906Z,77.91
2022-12-14T00:16:03.161Z,77.91
2022-12-14T00:16:12.925Z,77.84
2022-12-14T00:16:22.838Z,77.80
2022-12-14T00:16:32.979Z,77.80
2022-12-14T00:16:42.793Z,77.84
2022-12-14T00:16:52.955Z,77.80
2022-12-14T00:17:03.000Z,77.84
2022-12-14T00:17:13.059Z,77.80
2022-12-14T00:17:22.809Z,77.80
2022-12-14T00:17:33.044Z,77.84
2022-12-14T00:17:42.913Z,77.80
2022-12-14T00:17:52.889Z,77.80
2022-12-14T00:18:03.040Z,77.80
2022-12-14T00:18:15.710Z,77.80
2022-12-14T00:18:22.807Z,77.80
2022-12-14T00:18:32.876Z,77.80
2022-12-14T00:18:43.071Z,77.80
2022-12-14T00:18:53.057Z,77.80
2022-12-14T00:19:02.922Z,77.80
2022-12-14T00:19:12.977Z,77.73
2022-12-14T00:19:22.837Z,77.63
2022-12-14T00:19:33.085Z,77.59
2022-12-14T00:19:43.010Z,77.52
2022-12-14T00:19:53.026Z,77.52
2022-12-14T00:20:03.033Z,77.48
2022-12-14T00:20:12.942Z,77.52
2022-12-14T00:20:22.947Z,77.48
2022-12-14T00:20:32.866Z,77.48
2022-12-14T00:20:43.074Z,77.52
2022-12-14T00:20:52.815Z,77.52
2022-12-14T00:21:02.873Z,77.52
2022-12-14T00:21:12.867Z,77.52
2022-12-14T00:21:22.983Z,77.59
2022-12-14T00:21:32.916Z,77.59
2022-12-14T00:21:42.833Z,77.63
2022-12-14T00:21:52.771Z,77.63
2022-12-14T00:22:03.026Z,77.63
2022-12-14T00:22:12.807Z,77.63
2022-12-14T00:22:23.054Z,77.63
2022-12-14T00:22:32.959Z,77.59
2022-12-14T00:22:42.859Z,77.63
2022-12-14T00:22:52.815Z,77.59
2022-12-14T00:23:02.888Z,77.59
2022-12-14T00:23:12.780Z,77.59
2022-12-14T00:23:22.783Z,77.70
2022-12-14T00:23:37.101Z,77.70
2022-12-14T00:23:43.034Z,77.70
2022-12-14T00:23:52.785Z,77.70
2022-12-14T00:24:02.784Z,77.70
2022-12-14T00:24:13.093Z,77.70
2022-12-14T00:24:22.827Z,77.73
2022-12-14T00:24:32.796Z,77.73
2022-12-14T00:24:42.923Z,77.70
2022-12-14T00:24:53.100Z,77.70
2022-12-14T00:25:02.788Z,77.70
2022-12-14T00:25:13.066Z,77.80
2022-12-14T00:25:23.091Z,77.70
2022-12-14T00:25:32.781Z,77.70
2022-12-14T00:25:43.033Z,77.70
2022-12-14T00:25:52.984Z,77.70
2022-12-14T00:26:03.067Z,77.70
2022-12-14T00:26:12.904Z,77.70
2022-12-14T00:26:22.885Z,77.70
2022-12-14T00:26:33.075Z,77.70
2022-12-14T00:26:43.403Z,77.73
2022-12-14T00:26:53.036Z,77.73
2022-12-14T00:27:03.060Z,77.70
2022-12-14T00:27:13.050Z,77.70
2022-12-14T00:27:22.951Z,77.73
2022-12-14T00:27:32.993Z,77.70
2022-12-14T00:27:42.934Z,77.73
2022-12-14T00:27:53.092Z,77.70
2022-12-14T00:28:03.053Z,77.70
2022-12-14T00:28:12.902Z,77.70
2022-12-14T00:28:22.916Z,77.70
2022-12-14T00:28:32.891Z,77.73
2022-12-14T00:28:42.819Z,77.70
2022-12-14T00:28:52.996Z,77.70
2022-12-14T00:29:03.091Z,77.59
2022-12-14T00:29:13.073Z,77.59
2022-12-14T00:29:22.924Z,77.59
2022-12-14T00:29:33.044Z,77.63
2022-12-14T00:29:42.922Z,77.59
2022-12-14T00:29:52.829Z,77.59
2022-12-14T00:30:02.964Z,77.59
2022-12-14T00:30:12.820Z,77.59
2022-12-14T00:30:22.996Z,77.59
2022-12-14T00:30:32.797Z,77.59
2022-12-14T00:30:43.101Z,77.59
2022-12-14T00:30:58.113Z,77.63
2022-12-14T00:31:02.897Z,77.59
2022-12-14T00:31:13.027Z,77.59
2022-12-14T00:31:23.201Z,77.63
2022-12-14T00:31:32.981Z,77.59
2022-12-14T00:31:43.133Z,77.48
2022-12-14T00:31:52.925Z,77.48
2022-12-14T00:32:02.918Z,77.48
2022-12-14T00:32:12.910Z,77.48
2022-12-14T00:32:22.913Z,77.38
2022-12-14T00:32:33.083Z,77.38
2022-12-14T00:32:42.872Z,77.38
2022-12-14T00:32:53.045Z,77.38
2022-12-14T00:33:02.776Z,77.28
2022-12-14T00:33:12.979Z,77.28
2022-12-14T00:33:22.802Z,77.28
2022-12-14T00:33:32.922Z,77.28
2022-12-14T00:33:42.802Z,77.28
2022-12-14T00:33:53.079Z,77.28
2022-12-14T00:34:02.890Z,77.28
2022-12-14T00:34:12.961Z,77.28
2022-12-14T00:34:22.934Z,77.28
2022-12-14T00:34:33.083Z,77.28
2022-12-14T00:34:42.956Z,77.28
2022-12-14T00:34:53.032Z,77.28
2022-12-14T00:35:03.126Z,77.38
2022-12-14T00:35:12.972Z,77.38
2022-12-14T00:35:22.936Z,77.38
2022-12-14T00:35:32.987Z,77.38
2022-12-14T00:35:43.042Z,77.48
2022-12-14T00:35:53.048Z,77.48
2022-12-14T00:36:03.015Z,77.48
2022-12-14T00:36:12.906Z,77.48
2022-12-14T00:36:22.841Z,77.59
2022-12-14T00:36:32.896Z,77.59
2022-12-14T00:36:43.019Z,77.70
2022-12-14T00:36:52.852Z,77.70
2022-12-14T00:37:03.047Z,77.70
2022-12-14T00:37:12.838Z,77.80
2022-12-14T00:37:23.035Z,77.80
2022-12-14T00:37:32.796Z,77.80
2022-12-14T00:37:42.981Z,77.91
2022-12-14T00:37:52.884Z,77.91
2022-12-14T00:38:02.979Z,78.02
2022-12-14T00:38:12.791Z,78.02
2022-12-14T00:38:22.947Z,78.02
2022-12-14T00:38:32.972Z,78.12
2022-12-14T00:38:42.909Z,78.12
2022-12-14T00:38:53.036Z,78.12
2022-12-14T00:39:02.998Z,78.12
2022-12-14T00:39:12.916Z,78.12
2022-12-14T00:39:22.837Z,78.12
2022-12-14T00:39:32.889Z,78.12
2022-12-14T00:39:42.940Z,78.12
2022-12-14T00:39:52.794Z,78.12
2022-12-14T00:40:02.874Z,78.12
2022-12-14T00:40:13.035Z,78.12
2022-12-14T00:40:23.028Z,78.12
2022-12-14T00:40:33.097Z,78.12
2022-12-14T00:40:43.055Z,78.02
2022-12-14T00:40:53.099Z,78.02
2022-12-14T00:41:02.975Z,78.02
2022-12-14T00:41:12.979Z,78.02
2022-12-14T00:41:22.857Z,77.91
2022-12-14T00:41:32.832Z,77.91
2022-12-14T00:41:43.089Z,77.80
2022-12-14T00:41:52.794Z,77.80
2022-12-14T00:42:02.896Z,77.80
2022-12-14T00:42:12.960Z,77.70
2022-12-14T00:42:22.940Z,77.70
2022-12-14T00:42:33.039Z,77.59
2022-12-14T00:42:42.929Z,77.56
2022-12-14T00:42:52.875Z,77.59
2022-12-14T00:43:03.033Z,77.56
2022-12-14T00:43:13.009Z,77.59
2022-12-14T00:43:22.884Z,77.48
2022-12-14T00:43:32.852Z,77.48
2022-12-14T00:43:43.070Z,77.48
2022-12-14T00:43:52.985Z,77.38
2022-12-14T00:44:02.990Z,77.38
2022-12-14T00:44:12.981Z,77.38
2022-12-14T00:44:22.953Z,77.38
2022-12-14T00:44:33.065Z,77.38
2022-12-14T00:44:42.946Z,77.28
2022-12-14T00:44:52.966Z,77.28
2022-12-14T00:45:03.008Z,77.28
2022-12-14T00:45:12.847Z,77.17
2022-12-14T00:45:23.073Z,77.06
2022-12-14T00:45:32.875Z,77.06
2022-12-14T00:45:43.046Z,77.06
2022-12-14T00:45:52.984Z,77.03
2022-12-14T00:46:03.108Z,77.03
2022-12-14T00:46:12.857Z,77.06
2022-12-14T00:46:22.886Z,77.06
2022-12-14T00:46:32.925Z,77.06
2022-12-14T00:46:42.865Z,77.06
2022-12-14T00:46:52.965Z,77.03
2022-12-14T00:47:02.976Z,77.06
2022-12-14T00:47:13.008Z,76.96
2022-12-14T00:47:22.993Z,77.06
2022-12-14T00:47:38.999Z,77.06
2022-12-14T00:47:43.126Z,77.06
2022-12-14T00:47:52.940Z,77.06
2022-12-14T00:48:03.003Z,77.06
2022-12-14T00:48:13.033Z,77.06
2022-12-14T00:48:22.778Z,77.03
2022-12-14T00:48:33.225Z,77.06
2022-12-14T00:48:42.872Z,77.03
2022-12-14T00:48:52.911Z,77.06
2022-12-14T00:49:03.170Z,77.03
2022-12-14T00:49:12.883Z,77.06
2022-12-14T00:49:22.914Z,77.06
2022-12-14T00:49:32.808Z,77.06
2022-12-14T00:49:43.070Z,77.06
2022-12-14T00:49:52.939Z,77.06
2022-12-14T00:50:03.054Z,77.06
2022-12-14T00:50:12.983Z,77.17
2022-12-14T00:50:23.174Z,77.14
2022-12-14T00:50:33.067Z,77.17
2022-12-14T00:50:43.022Z,77.17
2022-12-14T00:50:53.022Z,77.14
2022-12-14T00:51:02.950Z,77.17
2022-12-14T00:51:13.022Z,77.17
2022-12-14T00:51:23.089Z,77.14
2022-12-14T00:51:33.116Z,77.14
2022-12-14T00:51:43.055Z,77.17
2022-12-14T00:51:52.828Z,77.14
2022-12-14T00:52:03.039Z,77.28
2022-12-14T00:52:13.067Z,77.24
2022-12-14T00:52:22.835Z,77.28
2022-12-14T00:52:33.066Z,77.17
2022-12-14T00:52:42.832Z,77.17
2022-12-14T00:52:52.780Z,77.17
2022-12-14T00:53:03.117Z,77.17
2022-12-14T00:53:12.796Z,77.14
2022-12-14T00:53:22.964Z,77.14
2022-12-14T00:53:32.782Z,77.14
2022-12-14T00:53:42.773Z,77.03
2022-12-14T00:53:52.798Z,77.03
2022-12-14T00:54:02.882Z,77.06
2022-12-14T00:54:13.068Z,77.06
2022-12-14T00:54:23.007Z,77.06
2022-12-14T00:54:33.097Z,77.06
2022-12-14T00:54:43.040Z,77.03
2022-12-14T00:54:52.939Z,77.06
2022-12-14T00:55:02.943Z,77.17
2022-12-14T00:55:13.020Z,77.14
2022-12-14T00:55:22.879Z,77.17
2022-12-14T00:55:32.772Z,77.17
2022-12-14T00:55:42.787Z,77.06
2022-12-14T00:55:52.882Z,77.17
2022-12-14T00:56:02.811Z,77.17
2022-12-14T00:56:12.822Z,77.17
2022-12-14T00:56:23.094Z,77.17
2022-12-14T00:56:32.996Z,77.17
2022-12-14T00:56:42.989Z,77.17
2022-12-14T00:56:53.065Z,77.17
2022-12-14T00:57:03.070Z,77.17
2022-12-14T00:57:12.886Z,77.17
2022-12-14T00:57:22.883Z,77.17
2022-12-14T00:57:32.787Z,77.17
2022-12-14T00:57:42.896Z,77.17
2022-12-14T00:57:52.827Z,77.28
2022-12-14T00:58:03.097Z,77.28
2022-12-14T00:58:12.834Z,77.28
2022-12-14T00:58:22.905Z,77.28
2022-12-14T00:58:33.151Z,77.38
2022-12-14T00:58:43.054Z,77.38
2022-12-14T00:58:52.859Z,77.38
2022-12-14T00:59:03.095Z,77.38
2022-12-14T00:59:13.020Z,77.38
2022-12-14T00:59:27.246Z,77.38
2022-12-14T00:59:33.061Z,77.38
2022-12-14T00:59:42.914Z,77.38
2022-12-14T00:59:52.869Z,77.38
2022-12-14T01:00:02.943Z,77.38
2022-12-14T01:00:12.877Z,77.34
2022-12-14T01:00:22.827Z,77.38
2022-12-14T01:00:33.124Z,77.48
2022-12-14T01:00:42.841Z,77.45
2022-12-14T01:00:52.787Z,77.48
2022-12-14T01:01:02.845Z,77.48
2022-12-14T01:01:13.247Z,77.48
2022-12-14T01:01:23.009Z,77.48
2022-12-14T01:01:33.064Z,77.48
2022-12-14T01:01:42.978Z,77.48
2022-12-14T01:01:52.937Z,77.56
2022-12-14T01:02:03.217Z,77.59
2022-12-14T01:02:13.238Z,77.59
2022-12-14T01:02:22.982Z,77.59
2022-12-14T01:02:33.256Z,77.59
2022-12-14T01:02:43.031Z,77.59
2022-12-14T01:02:52.838Z,77.59
2022-12-14T01:03:02.896Z,77.59
2022-12-14T01:03:13.049Z,77.59
2022-12-14T01:03:22.897Z,77.59
2022-12-14T01:03:33.508Z,77.70
2022-12-14T01:03:43.195Z,77.70
2022-12-14T01:03:52.889Z,77.59
2022-12-14T01:04:03.074Z,77.59
2022-12-14T01:04:12.858Z,77.59
2022-12-14T01:04:23.070Z,77.66
2022-12-14T01:04:32.888Z,77.70
2022-12-14T01:04:43.021Z,77.59
2022-12-14T01:04:52.897Z,77.59
2022-12-14T01:05:02.992Z,77.59
2022-12-14T01:05:12.992Z,77.59
2022-12-14T01:05:22.980Z,77.59
2022-12-14T01:05:33.053Z,77.56
2022-12-14T01:05:48.965Z,77.59
2022-12-14T01:05:53.060Z,77.56
2022-12-14T01:06:02.815Z,77.59
2022-12-14T01:06:13.010Z,77.45
2022-12-14T01:06:22.917Z,77.45
2022-12-14T01:06:33.133Z,77.48
2022-12-14T01:06:42.851Z,77.48
2022-12-14T01:06:53.034Z,77.45
2022-12-14T01:07:02.958Z,77.48
2022-12-14T01:07:13.008Z,77.48
2022-12-14T01:07:22.927Z,77.45
2022-12-14T01:07:33.070Z,77.45
2022-12-14T01:07:42.832Z,77.34
2022-12-14T01:07:52.995Z,77.38
2022-12-14T01:08:03.063Z,77.34
2022-12-14T01:08:13.073Z,77.38
2022-12-14T01:08:22.806Z,77.34
2022-12-14T01:08:32.966Z,77.34
2022-12-14T01:08:42.840Z,77.38
2022-12-14T01:08:52.794Z,77.34
2022-12-14T01:09:02.901Z,77.34
2022-12-14T01:09:12.833Z,77.38
2022-12-14T01:09:22.854Z,77.38
2022-12-14T01:09:32.918Z,77.24
2022-12-14T01:09:42.964Z,77.34
2022-12-14T01:09:52.971Z,77.28
2022-12-14T01:10:02.898Z,77.38
2022-12-14T01:10:12.982Z,77.28
2022-12-14T01:10:22.929Z,77.24
2022-12-14T01:10:32.881Z,77.24
2022-12-14T01:10:42.980Z,77.24
2022-12-14T01:10:52.990Z,77.24
2022-12-14T01:11:02.775Z,77.24
2022-12-14T01:11:12.852Z,77.24
2022-12-14T01:11:22.932Z,77.24
2022-12-14T01:11:33.056Z,77.34
2022-12-14T01:11:42.998Z,77.28
2022-12-14T01:11:52.803Z,77.38
2022-12-14T01:12:02.943Z,77.38
2022-12-14T01:12:13.039Z,77.24
2022-12-14T01:12:22.909Z,77.24
2022-12-14T01:12:32.869Z,77.34
2022-12-14T01:12:42.944Z,77.34
2022-12-14T01:12:52.967Z,77.34
2022-12-14T01:13:02.924Z,77.24
2022-12-14T01:13:12.947Z,77.24
2022-12-14T01:13:23.025Z,77.28
2022-12-14T01:13:33.055Z,77.28
2022-12-14T01:13:42.950Z,77.24
2022-12-14T01:13:52.938Z,77.24
2022-12-14T01:14:02.889Z,77.24
2022-12-14T01:14:12.893Z,77.14
2022-12-14T01:14:23.050Z,77.24
2022-12-14T01:14:32.972Z,77.28
2022-12-14T01:14:42.970Z,77.14
2022-12-14T01:14:52.772Z,77.14
2022-12-14T01:15:02.965Z,77.14
2022-12-14T01:15:13.085Z,77.14
2022-12-14T01:15:23.020Z,77.17
2022-12-14T01:15:32.823Z,77.17
2022-12-14T01:15:43.131Z,77.17
2022-12-14T01:15:53.170Z,77.03
2022-12-14T01:16:02.843Z,77.06
2022-12-14T01:16:13.194Z,77.06
2022-12-14T01:16:23.109Z,77.03
2022-12-14T01:16:32.964Z,77.03
2022-12-14T01:16:42.788Z,77.03
2022-12-14T01:16:52.826Z,77.06
2022-12-14T01:17:02.844Z,77.06
2022-12-14T01:17:12.796Z,77.06
2022-12-14T01:17:22.850Z,77.03
2022-12-14T01:17:32.965Z,77.03
2022-12-14T01:17:42.886Z,77.06
2022-12-14T01:17:52.910Z,77.14
2022-12-14T01:18:02.999Z,77.14
2022-12-14T01:18:13.101Z,77.14
2022-12-14T01:18:22.796Z,77.17
2022-12-14T01:18:32.956Z,77.14
2022-12-14T01:18:42.810Z,77.14
2022-12-14T01:18:52.783Z,77.17
2022-12-14T01:19:02.847Z,77.17
2022-12-14T01:19:12.921Z,77.14
2022-12-14T01:19:23.029Z,77.03
2022-12-14T01:19:32.892Z,77.14
2022-12-14T01:19:42.841Z,77.14
2022-12-14T01:19:52.785Z,77.06
2022-12-14T01:20:02.850Z,77.03
2022-12-14T01:20:12.841Z,77.03
2022-12-14T01:20:22.907Z,77.03
2022-12-14T01:20:32.819Z,77.03
2022-12-14T01:20:42.801Z,77.03
2022-12-14T01:20:52.888Z,77.03
2022-12-14T01:21:02.903Z,77.03
2022-12-14T01:21:12.959Z,77.03
2022-12-14T01:21:22.893Z,77.03
2022-12-14T01:21:33.063Z,77.03
2022-12-14T01:21:43.025Z,77.03
2022-12-14T01:21:52.805Z,77.06
2022-12-14T01:22:02.921Z,77.03
2022-12-14T01:22:12.813Z,77.03
2022-12-14T01:22:23.074Z,77.03
2022-12-14T01:22:32.853Z,77.03
2022-12-14T01:22:43.016Z,77.03
2022-12-14T01:22:53.079Z,77.03
2022-12-14T01:23:02.845Z,77.03
2022-12-14T01:23:13.064Z,77.14
2022-12-14T01:23:23.085Z,77.14
2022-12-14T01:23:32.935Z,77.14
2022-12-14T01:23:42.791Z,77.14
2022-12-14T01:23:52.818Z,77.14
2022-12-14T01:24:02.860Z,77.14
2022-12-14T01:24:12.955Z,77.24
2022-12-14T01:24:23.019Z,77.24
2022-12-14T01:24:32.906Z,77.24
2022-12-14T01:24:42.888Z,77.24
2022-12-14T01:24:53.025Z,77.24
2022-12-14T01:25:02.783Z,77.34
2022-12-14T01:25:12.851Z,77.34
2022-12-14T01:25:22.781Z,77.45
2022-12-14T01:25:32.924Z,77.45
2022-12-14T01:25:42.873Z,77.45
2022-12-14T01:25:52.918Z,77.45
2022-12-14T01:26:02.888Z,77.45
2022-12-14T01:26:12.966Z,77.45
2022-12-14T01:26:23.011Z,77.45
2022-12-14T01:26:32.820Z,77.45
2022-12-14T01:26:42.930Z,77.45
2022-12-14T01:26:52.908Z,77.45
2022-12-14T01:27:02.921Z,77.45
2022-12-14T01:27:12.818Z,77.34
2022-12-14T01:27:23.071Z,77.34
2022-12-14T01:27:33.006Z,77.24
2022-12-14T01:27:43.001Z,77.24
2022-12-14T01:27:53.031Z,77.24
2022-12-14T01:28:02.951Z,77.24
2022-12-14T01:28:12.806Z,77.14
2022-12-14T01:28:23.013Z,77.14
2022-12-14T01:28:32.968Z,77.14
2022-12-14T01:28:42.961Z,77.03
2022-12-14T01:28:52.811Z,77.14
2022-12-14T01:29:02.879Z,77.03
2022-12-14T01:29:12.874Z,77.03
2022-12-14T01:29:22.978Z,77.03
2022-12-14T01:29:33.024Z,77.03
2022-12-14T01:29:43.016Z,77.03
2022-12-14T01:29:52.978Z,77.03
2022-12-14T01:30:02.834Z,77.03
2022-12-14T01:30:12.963Z,77.03
2022-12-14T01:30:22.847Z,77.03
2022-12-14T01:30:32.901Z,76.92
2022-12-14T01:30:43.103Z,77.03
2022-12-14T01:30:52.893Z,77.03
2022-12-14T01:31:02.906Z,77.03
2022-12-14T01:31:13.174Z,77.03
2022-12-14T01:31:23.150Z,77.14
2022-12-14T01:31:33.145Z,77.14
2022-12-14T01:31:43.061Z,77.24
2022-12-14T01:31:52.824Z,77.24
2022-12-14T01:32:02.911Z,77.24
2022-12-14T01:32:12.864Z,77.24
2022-12-14T01:32:22.964Z,77.34
2022-12-14T01:32:32.810Z,77.34
2022-12-14T01:32:42.821Z,77.31
2022-12-14T01:32:52.891Z,77.34
2022-12-14T01:33:02.854Z,77.45
2022-12-14T01:33:12.855Z,77.45
2022-12-14T01:33:22.782Z,77.45
2022-12-14T01:33:32.988Z,77.45
2022-12-14T01:33:42.840Z,77.45
2022-12-14T01:33:52.812Z,77.45
2022-12-14T01:34:03.437Z,77.42
2022-12-14T01:34:14.903Z,77.45
2022-12-14T01:34:22.968Z,77.45
2022-12-14T01:34:32.850Z,77.45
2022-12-14T01:34:42.787Z,77.56
2022-12-14T01:34:52.873Z,77.56
2022-12-14T01:35:02.790Z,77.56
2022-12-14T01:35:12.791Z,77.56
2022-12-14T01:35:23.124Z,77.56
2022-12-14T01:35:32.895Z,77.56
2022-12-14T01:35:42.828Z,77.56
2022-12-14T01:35:53.028Z,77.56
2022-12-14T01:36:03.044Z,77.56
2022-12-14T01:36:13.061Z,77.66
2022-12-14T01:36:22.957Z,77.66
2022-12-14T01:36:32.807Z,77.66
2022-12-14T01:36:42.882Z,77.66
2022-12-14T01:36:52.775Z,77.66
2022-12-14T01:37:03.040Z,77.66
2022-12-14T01:37:13.001Z,77.66
2022-12-14T01:37:22.916Z,77.77
2022-12-14T01:37:32.812Z,77.73
2022-12-14T01:37:42.825Z,77.77
2022-12-14T01:37:52.892Z,77.77
2022-12-14T01:38:02.785Z,77.77
2022-12-14T01:38:12.801Z,77.73
2022-12-14T01:38:22.964Z,77.77
2022-12-14T01:38:33.039Z,77.77
2022-12-14T01:38:42.928Z,77.77
2022-12-14T01:38:52.981Z,77.73
2022-12-14T01:39:02.925Z,77.73
2022-12-14T01:39:13.015Z,77.66
2022-12-14T01:39:22.960Z,77.66
2022-12-14T01:39:32.939Z,77.66
2022-12-14T01:39:43.008Z,77.63
2022-12-14T01:39:52.864Z,77.63
2022-12-14T01:40:02.940Z,77.66
2022-12-14T01:40:13.112Z,77.66
2022-12-14T01:40:22.913Z,77.63
2022-12-14T01:40:33.056Z,77.63
2022-12-14T01:40:42.785Z,77.63
2022-12-14T01:40:53.034Z,77.52
2022-12-14T01:41:02.923Z,77.52
2022-12-14T01:41:12.998Z,77.52
2022-12-14T01:41:22.907Z,77.52
2022-12-14T01:41:32.793Z,77.52
2022-12-14T01:41:42.889Z,77.52
2022-12-14T01:41:52.965Z,77.52
2022-12-14T01:42:02.977Z,77.56
2022-12-14T01:42:13.020Z,77.52
2022-12-14T01:42:23.001Z,77.42
2022-12-14T01:42:33.034Z,77.42
2022-12-14T01:42:43.052Z,77.42
2022-12-14T01:42:52.825Z,77.42
2022-12-14T01:43:03.081Z,77.31
2022-12-14T01:43:13.095Z,77.31
2022-12-14T01:43:22.834Z,77.31
2022-12-14T01:43:32.882Z,77.20
2022-12-14T01:43:42.827Z,77.20
2022-12-14T01:43:53.009Z,77.20
2022-12-14T01:44:02.908Z,77.20
2022-12-14T01:44:13.032Z,77.10
2022-12-14T01:44:22.879Z,77.10
2022-12-14T01:44:32.940Z,77.00
2022-12-14T01:44:42.854Z,77.00
2022-12-14T01:44:52.988Z,77.00
2022-12-14T01:45:03.082Z,77.00
2022-12-14T01:45:12.829Z,76.89
2022-12-14T01:45:22.991Z,76.89
2022-12-14T01:45:33.057Z,76.89
2022-12-14T01:45:43.068Z,76.92
2022-12-14T01:45:53.060Z,76.89
2022-12-14T01:46:02.911Z,76.89
2022-12-14T01:46:12.900Z,76.89
2022-12-14T01:46:23.088Z,76.89
2022-12-14T01:46:33.102Z,76.89
2022-12-14T01:46:42.922Z,76.89
2022-12-14T01:46:53.103Z,76.89
2022-12-14T01:47:07.388Z,76.89
2022-12-14T01:47:13.157Z,76.89
2022-12-14T01:47:22.961Z,76.89
2022-12-14T01:47:32.939Z,76.89
2022-12-14T01:47:42.999Z,76.89
2022-12-14T01:47:52.910Z,76.89
2022-12-14T01:48:03.043Z,76.89
2022-12-14T01:48:12.801Z,76.78
2022-12-14T01:48:22.832Z,76.78
2022-12-14T01:48:32.830Z,76.78
2022-12-14T01:48:43.016Z,76.68
2022-12-14T01:48:53.049Z,76.68
2022-12-14T01:49:02.950Z,76.68
2022-12-14T01:49:12.782Z,76.57
2022-12-14T01:49:22.802Z,76.57
2022-12-14T01:49:32.789Z,76.57
2022-12-14T01:49:42.824Z,76.61
2022-12-14T01:49:53.003Z,76.57
2022-12-14T01:50:02.901Z,76.57
2022-12-14T01:50:12.808Z,76.57
2022-12-14T01:50:22.785Z,76.57
2022-12-14T01:50:32.820Z,76.57
2022-12-14T01:50:42.930Z,76.57
2022-12-14T01:50:53.006Z,76.57
2022-12-14T01:51:03.011Z,76.47
2022-12-14T01:51:12.782Z,76.47
2022-12-14T01:51:22.975Z,76.36
2022-12-14T01:51:32.847Z,76.36
2022-12-14T01:51:43.071Z,76.36
2022-12-14T01:51:52.917Z,76.26
2022-12-14T01:52:02.995Z,76.26
2022-12-14T01:52:12.802Z,76.26
2022-12-14T01:52:22.880Z,76.15
2022-12-14T01:52:32.964Z,76.15
2022-12-14T01:52:42.821Z,76.15
2022-12-14T01:52:53.063Z,76.15
2022-12-14T01:53:03.021Z,76.15
2022-12-14T01:53:12.803Z,76.05
2022-12-14T01:53:22.880Z,76.05
2022-12-14T01:53:32.979Z,76.05
2022-12-14T01:53:42.819Z,76.05
2022-12-14T01:53:52.911Z,76.05
2022-12-14T01:54:02.974Z,76.05
2022-12-14T01:54:12.859Z,76.05
2022-12-14T01:54:22.890Z,76.05
2022-12-14T01:54:33.032Z,76.05
2022-12-14T01:54:42.967Z,76.15
2022-12-14T01:54:52.952Z,76.05
2022-12-14T01:55:02.772Z,76.05
2022-12-14T01:55:12.807Z,76.05
2022-12-14T01:55:22.995Z,76.05
2022-12-14T01:55:32.847Z,76.05
2022-12-14T01:55:45.229Z,76.05
2022-12-14T01:55:52.783Z,76.05
2022-12-14T01:56:03.053Z,76.05
2022-12-14T01:56:12.824Z,76.05
2022-12-14T01:56:22.867Z,76.05
2022-12-14T01:56:32.961Z,76.05
2022-12-14T01:56:42.945Z,76.05
2022-12-14T01:56:52.944Z,76.15
2022-12-14T01:57:02.817Z,76.15
2022-12-14T01:57:12.772Z,76.15
2022-12-14T01:57:23.039Z,76.15
2022-12-14T01:57:32.963Z,76.26
2022-12-14T01:57:42.849Z,76.15
2022-12-14T01:57:52.828Z,76.15
2022-12-14T01:58:03.070Z,76.26
2022-12-14T01:58:13.084Z,76.26
2022-12-14T01:58:22.853Z,76.26
2022-12-14T01:58:32.937Z,76.26
2022-12-14T01:58:42.851Z,76.26
2022-12-14T01:58:52.969Z,76.26
2022-12-14T01:59:02.779Z,76.36
2022-12-14T01:59:12.849Z,76.36
2022-12-14T01:59:22.943Z,76.36
2022-12-14T01:59:32.964Z,76.36
2022-12-14T01:59:43.042Z,76.36
2022-12-14T01:59:52.780Z,76.36
2022-12-14T02:00:07.140Z,76.47
2022-12-14T02:00:12.957Z,76.47
2022-12-14T02:00:23.075Z,76.47
2022-12-14T02:00:33.121Z,76.57
2022-12-14T02:00:42.794Z,76.57
2022-12-14T02:00:52.868Z,76.57
2022-12-14T02:01:02.963Z,76.57
2022-12-14T02:01:13.034Z,76.57
2022-12-14T02:01:23.108Z,76.47
2022-12-14T02:01:33.109Z,76.47
2022-12-14T02:01:42.967Z,76.47
2022-12-14T02:01:53.208Z,76.36
2022-12-14T02:02:03.038Z,76.36
2022-12-14T02:02:13.130Z,76.36
2022-12-14T02:02:23.204Z,76.26
2022-12-14T02:02:32.995Z,76.26
2022-12-14T02:02:43.090Z,76.26
2022-12-14T02:02:53.150Z,76.26
2022-12-14T02:03:03.044Z,76.15
2022-12-14T02:03:12.907Z,76.15
2022-12-14T02:03:23.055Z,76.15
2022-12-14T02:03:33.438Z,76.15
2022-12-14T02:03:42.981Z,76.05
2022-12-14T02:03:52.950Z,76.05
2022-12-14T02:04:02.936Z,76.05
2022-12-14T02:04:13.037Z,75.94
2022-12-14T02:04:22.883Z,75.84
2022-12-14T02:04:32.784Z,75.84
2022-12-14T02:04:42.778Z,75.84
2022-12-14T02:04:52.938Z,75.84
2022-12-14T02:05:03.016Z,75.84
2022-12-14T02:05:13.013Z,75.84
2022-12-14T02:05:22.848Z,75.94
2022-12-14T02:05:32.869Z,75.94
2022-12-14T02:05:42.969Z,75.94
2022-12-14T02:05:53.014Z,76.05
2022-12-14T02:06:02.957Z,76.05
2022-12-14T02:06:13.003Z,76.05
2022-12-14T02:06:22.878Z,76.05
2022-12-14T02:06:32.782Z,76.15
2022-12-14T02:06:42.854Z,76.15
2022-12-14T02:06:57.852Z,76.26
2022-12-14T02:07:02.789Z,76.26
2022-12-14T02:07:12.815Z,76.26
2022-12-14T02:07:22.863Z,76.26
2022-12-14T02:07:33.061Z,76.36
2022-12-14T02:07:42.922Z,76.36
2022-12-14T02:07:52.806Z,76.36
2022-12-14T02:08:02.934Z,76.36
2022-12-14T02:08:13.025Z,76.36
2022-12-14T02:08:22.787Z,76.36
2022-12-14T02:08:32.831Z,76.47
2022-12-14T02:08:42.877Z,76.47